MAH weather

Menorca Airport
Menorca Island, Baleares, Spain

Public forecast

Using degrees Celsius for public forecast. Weather courtesy of forecast.io.

METAR (pilot weather report)

Retrieved 2019/04/23 15:30 UTC (3 minutes ago):

LEMH 231530Z 21013KT 170V240 9999 SCT006 BKN008 BKN015 17/15 Q1001

TAF (pilot weather forecast)

Retrieved 2019/04/23 15:27 UTC (6 minutes ago):

TAF LEMH 231400Z 2315/2415 20015KT 8000 SCT020 TX18/2413Z TN11/2406Z TEMPO 2315/2318 22015G25KT BKN008 TEMPO 2401/2410 20020G33KT